createdAt,value
2018-04-25T00:01:00.356Z,5.17
2018-04-25T00:03:28.399Z,5.60
2018-04-25T00:05:56.443Z,4.90
2018-04-25T00:08:24.499Z,5.10
2018-04-25T00:10:52.564Z,4.67
2018-04-25T00:13:21.395Z,5.30
2018-04-25T00:15:50.187Z,5.00
2018-04-25T00:18:18.234Z,5.03
2018-04-25T00:20:46.283Z,4.97
2018-04-25T00:23:14.335Z,5.17
2018-04-25T00:25:43.152Z,5.30
2018-04-25T00:28:11.200Z,5.77
2018-04-25T00:30:39.260Z,5.13
2018-04-25T00:33:07.307Z,5.47
2018-04-25T00:35:35.354Z,5.17
2018-04-25T00:38:03.403Z,5.83
2018-04-25T00:40:31.441Z,6.10
2018-04-25T00:43:03.722Z,5.77
2018-04-25T00:45:32.609Z,6.10
2018-04-25T00:48:00.588Z,6.07
2018-04-25T00:50:28.633Z,6.33
2018-04-25T00:52:56.685Z,7.17
2018-04-25T00:55:24.731Z,5.83
2018-04-25T00:57:52.778Z,6.40
2018-04-25T01:00:20.823Z,5.73
2018-04-25T01:02:49.632Z,5.73
2018-04-25T01:05:18.453Z,6.03
2018-04-25T01:07:46.490Z,6.33
2018-04-25T01:10:14.554Z,6.90
2018-04-25T01:12:42.605Z,7.00
2018-04-25T01:15:10.655Z,6.40
2018-04-25T01:17:38.707Z,7.20
2018-04-25T01:20:06.763Z,6.17
2018-04-25T01:22:35.591Z,6.77
2018-04-25T01:28:18.219Z,6.27
2018-04-25T01:31:10.506Z,6.97
2018-04-25T01:33:41.399Z,6.07
2018-04-25T01:36:14.587Z,6.97
2018-04-25T01:38:48.246Z,6.37
2018-04-25T01:41:17.045Z,6.33
2018-04-25T01:43:57.020Z,7.27
2018-04-25T01:46:25.927Z,6.60
2018-04-25T01:49:29.408Z,6.77
2018-04-25T01:52:16.175Z,7.30
2018-04-25T01:55:02.052Z,7.17
2018-04-25T01:57:48.776Z,7.33
2018-04-25T02:00:35.484Z,7.33
2018-04-25T02:03:03.543Z,6.73
2018-04-25T02:05:31.595Z,6.90
2018-04-25T02:07:59.647Z,7.37
2018-04-25T02:10:28.463Z,6.80
2018-04-25T02:12:56.507Z,6.90
2018-04-25T02:15:24.559Z,7.37
2018-04-25T02:17:52.599Z,7.10
2018-04-25T02:20:21.420Z,6.60
2018-04-25T02:22:49.463Z,7.23
2018-04-25T02:25:17.520Z,7.10
2018-04-25T02:27:45.571Z,7.30
2018-04-25T02:30:13.628Z,7.53
2018-04-25T02:32:42.443Z,7.03
2018-04-25T02:35:11.268Z,7.23
2018-04-25T02:37:39.312Z,7.80
2018-04-25T02:40:08.976Z,7.30
2018-04-25T02:42:37.011Z,7.27
2018-04-25T02:45:05.067Z,7.00
2018-04-25T02:47:33.171Z,7.57
2018-04-25T02:50:01.933Z,7.27
2018-04-25T02:52:29.974Z,7.47
2018-04-25T02:54:58.032Z,7.50
2018-04-25T02:57:26.074Z,7.23
2018-04-25T02:59:54.177Z,7.37
2018-04-25T03:02:22.219Z,7.57
2018-04-25T03:04:50.278Z,7.77
2018-04-25T03:07:18.329Z,6.83
2018-04-25T03:09:46.387Z,7.13
2018-04-25T03:12:15.202Z,7.73
2018-04-25T03:14:43.250Z,7.67
2018-04-25T03:17:12.807Z,7.70
2018-04-25T03:19:40.854Z,7.20
2018-04-25T03:22:08.912Z,7.07
2018-04-25T03:24:36.955Z,6.90
2018-04-25T03:27:05.016Z,7.53
2018-04-25T03:29:33.829Z,7.67
2018-04-25T03:32:02.652Z,7.47
2018-04-25T03:34:30.696Z,7.40
2018-04-25T03:36:58.743Z,7.23
2018-04-25T03:39:26.791Z,7.57
2018-04-25T03:41:55.636Z,7.50
2018-04-25T03:44:23.777Z,7.87
2018-04-25T03:46:52.600Z,7.77
2018-04-25T03:49:20.643Z,7.23
2018-04-25T03:51:48.699Z,7.57
2018-04-25T03:54:16.752Z,8.13
2018-04-25T03:56:44.807Z,7.50
2018-04-25T03:59:12.897Z,8.07
2018-04-25T04:01:40.899Z,7.77
2018-04-25T04:04:08.948Z,7.93
2018-04-25T04:06:36.998Z,8.53
2018-04-25T04:09:05.059Z,8.07
2018-04-25T04:11:33.119Z,8.23
2018-04-25T04:14:01.933Z,8.00
2018-04-25T04:16:30.751Z,7.80
2018-04-25T04:18:58.794Z,7.60
2018-04-25T04:21:26.843Z,8.20
2018-04-25T04:23:54.885Z,8.00
2018-04-25T04:26:23.700Z,7.73
2018-04-25T04:28:51.748Z,8.30
2018-04-25T04:31:19.798Z,8.43
2018-04-25T04:33:47.844Z,7.63
2018-04-25T04:36:15.899Z,7.50
2018-04-25T04:38:43.947Z,8.53
2018-04-25T04:41:12.003Z,7.97
2018-04-25T04:43:40.052Z,8.33
2018-04-25T04:46:08.103Z,7.40
2018-04-25T04:48:36.143Z,8.30
2018-04-25T04:51:04.955Z,8.10
2018-04-25T04:53:33.079Z,7.57
2018-04-25T04:56:01.152Z,8.23
2018-04-25T04:58:29.203Z,7.27
2018-04-25T05:00:58.015Z,8.07
2018-04-25T05:03:26.068Z,8.17
2018-04-25T05:05:54.888Z,7.87
2018-04-25T05:08:23.716Z,8.07
2018-04-25T05:10:51.750Z,8.10
2018-04-25T05:13:19.809Z,8.07
2018-04-25T05:15:47.851Z,7.70
2018-04-25T05:18:15.911Z,8.03
2018-04-25T05:20:43.959Z,8.13
2018-04-25T05:23:12.011Z,8.70
2018-04-25T05:25:40.051Z,8.00
2018-04-25T05:28:08.111Z,8.47
2018-04-25T05:30:36.154Z,8.70
2018-04-25T05:33:04.207Z,8.30
2018-04-25T05:35:32.255Z,8.03
2018-04-25T05:38:00.307Z,8.50
2018-04-25T05:40:28.353Z,9.43
2018-04-25T05:42:56.407Z,8.27
2018-04-25T05:45:24.450Z,7.87
2018-04-25T05:47:53.291Z,7.63
2018-04-25T05:50:21.327Z,7.70
2018-04-25T05:52:50.151Z,7.20
2018-04-25T05:55:18.191Z,7.50
2018-04-25T05:57:46.334Z,8.33
2018-04-25T06:00:14.291Z,8.30
2018-04-25T06:02:43.112Z,7.77
2018-04-25T06:05:11.159Z,8.00
2018-04-25T06:07:39.220Z,7.70
2018-04-25T06:10:07.269Z,8.03
2018-04-25T06:12:35.442Z,7.53
2018-04-25T06:15:03.411Z,7.50
2018-04-25T06:17:32.222Z,7.67
2018-04-25T06:20:01.033Z,7.30
2018-04-25T06:22:29.075Z,7.00
2018-04-25T06:24:57.211Z,7.20
2018-04-25T06:27:25.264Z,8.10
2018-04-25T06:29:54.076Z,7.70
2018-04-25T06:32:22.899Z,7.47
2018-04-25T06:34:50.951Z,7.90
2018-04-25T06:37:18.998Z,7.40
2018-04-25T06:39:47.052Z,6.70
2018-04-25T06:42:15.099Z,8.03
2018-04-25T06:44:43.198Z,7.57
2018-04-25T06:47:11.203Z,7.67
2018-04-25T06:49:39.260Z,8.03
2018-04-25T06:52:08.074Z,8.30
2018-04-25T06:54:36.892Z,8.00
2018-04-25T06:57:04.943Z,8.07
2018-04-25T06:59:33.000Z,8.00
2018-04-25T07:02:01.051Z,8.17
2018-04-25T07:04:29.116Z,8.13
2018-04-25T07:06:57.927Z,8.47
2018-04-25T07:09:25.994Z,7.67
2018-04-25T07:11:55.028Z,8.23
2018-04-25T07:14:23.086Z,8.17
2018-04-25T07:16:51.891Z,7.90
2018-04-25T07:19:20.703Z,7.63
2018-04-25T07:21:48.750Z,7.60
2018-04-25T07:24:16.812Z,7.27
2018-04-25T07:26:44.870Z,6.00
2018-04-25T07:29:12.915Z,6.33
2018-04-25T07:31:41.779Z,5.73
2018-04-25T07:34:09.830Z,6.00
2018-04-25T07:36:37.875Z,5.73
2018-04-25T07:39:05.923Z,5.70
2018-04-25T07:41:34.035Z,5.77
2018-04-25T07:44:02.028Z,5.37
2018-04-25T07:46:30.067Z,5.43
2018-04-25T07:48:58.124Z,5.57
2018-04-25T07:51:26.931Z,6.17
2018-04-25T07:53:55.758Z,5.50
2018-04-25T07:56:23.796Z,5.83
2018-04-25T07:58:51.847Z,5.90
2018-04-25T08:01:19.887Z,5.63
2018-04-25T08:03:48.698Z,5.77
2018-04-25T08:06:16.740Z,6.83
2018-04-25T08:08:44.841Z,6.60
2018-04-25T08:11:12.879Z,6.47
2018-04-25T08:13:58.415Z,6.33
2018-04-25T08:19:55.123Z,6.77
2018-04-25T08:22:23.963Z,7.43
2018-04-25T08:24:52.024Z,7.30
2018-04-25T08:27:20.077Z,7.43
2018-04-25T08:29:48.132Z,7.90
2018-04-25T08:32:16.173Z,7.30
2018-04-25T08:34:44.227Z,7.70
2018-04-25T08:37:12.280Z,8.07
2018-04-25T08:39:40.332Z,7.40
2018-04-25T08:42:08.379Z,8.10
2018-04-25T08:44:37.261Z,8.17
2018-04-25T08:47:06.019Z,8.27
2018-04-25T08:49:34.080Z,7.97
2018-04-25T08:52:02.127Z,7.80
2018-04-25T08:54:30.172Z,7.43
2018-04-25T08:56:58.227Z,7.67
2018-04-25T08:59:26.271Z,8.40
2018-04-25T09:01:55.097Z,8.17
2018-04-25T09:04:23.145Z,8.57
2018-04-25T09:06:51.200Z,8.30
2018-04-25T09:09:20.012Z,8.07
2018-04-25T09:11:48.100Z,7.70
2018-04-25T09:14:16.147Z,8.20
2018-04-25T09:16:44.207Z,7.70
2018-04-25T09:19:12.255Z,7.90
2018-04-25T09:21:40.743Z,8.40
2018-04-25T09:24:08.794Z,8.37
2018-04-25T09:26:36.840Z,8.10
2018-04-25T09:29:04.888Z,7.70
2018-04-25T09:31:33.712Z,8.53
2018-04-25T09:34:01.799Z,8.13
2018-04-25T09:36:29.851Z,8.10
2018-04-25T09:38:58.667Z,8.17
2018-04-25T09:41:26.737Z,8.47
2018-04-25T09:43:54.767Z,8.40
2018-04-25T09:46:22.859Z,7.33
2018-04-25T09:48:50.900Z,7.60
2018-04-25T09:51:19.723Z,7.20
2018-04-25T09:53:47.779Z,7.80
2018-04-25T09:56:16.600Z,7.57
2018-04-25T09:58:45.411Z,6.90
2018-04-25T10:04:16.729Z,6.47
2018-04-25T10:06:44.788Z,6.60
2018-04-25T10:09:12.831Z,6.90
2018-04-25T10:11:41.516Z,6.90
2018-04-25T10:14:09.558Z,6.50
2018-04-25T10:16:37.608Z,6.70
2018-04-25T10:19:05.652Z,5.70
2018-04-25T10:21:33.699Z,6.27
2018-04-25T10:24:01.750Z,5.70
2018-04-25T10:26:29.800Z,6.47
2018-04-25T10:28:57.846Z,6.47
2018-04-25T10:31:26.671Z,5.90
2018-04-25T10:33:54.710Z,6.13
2018-04-25T10:36:22.768Z,6.33
2018-04-25T10:38:50.814Z,5.77
2018-04-25T10:41:18.863Z,5.00
2018-04-25T10:43:46.904Z,5.20
2018-04-25T10:46:14.973Z,5.60
2018-04-25T10:48:43.013Z,5.53
2018-04-25T10:51:11.063Z,5.30
2018-04-25T10:53:39.165Z,4.70
2018-04-25T10:56:07.191Z,5.40
2018-04-25T10:58:36.003Z,5.17
2018-04-25T11:01:04.052Z,4.97
2018-04-25T11:03:32.104Z,5.00
2018-04-25T11:06:00.155Z,5.30
2018-04-25T11:08:28.974Z,5.03
2018-04-25T11:10:57.015Z,4.50
2018-04-25T11:13:25.070Z,4.50
2018-04-25T11:15:53.111Z,4.70
2018-04-25T11:18:21.203Z,4.83
2018-04-25T11:20:49.243Z,5.13
2018-04-25T11:23:17.301Z,5.33
2018-04-25T11:25:45.343Z,5.20
2018-04-25T11:28:13.391Z,4.60
2018-04-25T11:30:42.948Z,4.73
2018-04-25T11:33:10.998Z,5.00
2018-04-25T11:35:39.043Z,4.43
2018-04-25T11:38:07.091Z,4.80
2018-04-25T11:40:35.901Z,4.50
2018-04-25T11:43:03.955Z,5.37
2018-04-25T11:45:31.999Z,5.13
2018-04-25T11:48:00.062Z,5.73
2018-04-25T11:50:28.111Z,6.27
2018-04-25T11:52:56.163Z,5.67
2018-04-25T11:55:24.207Z,6.27
2018-04-25T11:57:52.264Z,5.27
2018-04-25T12:00:20.316Z,5.70
2018-04-25T12:02:48.448Z,5.70
2018-04-25T12:05:16.412Z,6.47
2018-04-25T12:07:44.461Z,5.70
2018-04-25T12:10:12.519Z,5.80
2018-04-25T12:12:40.571Z,6.50
2018-04-25T12:15:08.635Z,6.00
2018-04-25T12:17:36.683Z,6.20
2018-04-25T12:20:04.723Z,6.30
2018-04-25T12:22:32.775Z,6.23
2018-04-25T12:25:00.838Z,6.40
2018-04-25T12:27:28.894Z,5.37
2018-04-25T12:29:57.704Z,4.90
2018-04-25T12:32:26.527Z,4.60
2018-04-25T12:34:54.570Z,4.60
2018-04-25T12:37:22.624Z,5.07
2018-04-25T12:39:50.667Z,5.17
2018-04-25T12:42:18.748Z,4.90
2018-04-25T12:44:47.586Z,5.10
2018-04-25T12:47:15.650Z,4.80
2018-04-25T12:49:43.735Z,4.70
2018-04-25T12:52:11.776Z,4.77
2018-04-25T12:54:39.827Z,4.73
2018-04-25T12:57:07.878Z,4.53
2018-04-25T12:59:35.928Z,3.87
2018-04-25T13:02:03.971Z,4.40
2018-04-25T13:04:32.026Z,4.00
2018-04-25T13:07:00.839Z,4.03
2018-04-25T13:09:28.891Z,4.00
2018-04-25T13:11:57.700Z,4.43
2018-04-25T13:14:26.519Z,4.33
2018-04-25T13:16:54.560Z,3.80
2018-04-25T13:19:22.614Z,3.23
2018-04-25T13:21:50.663Z,3.83
2018-04-25T13:24:19.480Z,3.23
2018-04-25T13:26:47.522Z,3.70
2018-04-25T13:29:15.583Z,3.07
2018-04-25T13:31:44.443Z,3.20
2018-04-25T13:34:12.492Z,3.07
2018-04-25T13:36:40.530Z,3.80
2018-04-25T13:39:08.611Z,4.03
2018-04-25T13:41:36.659Z,4.50
2018-04-25T13:44:04.715Z,4.77
2018-04-25T13:46:32.756Z,4.10
2018-04-25T13:49:00.847Z,3.77
2018-04-25T13:51:29.643Z,3.70
2018-04-25T13:53:57.691Z,3.10
2018-04-25T13:56:25.735Z,3.73
2018-04-25T13:58:53.785Z,2.40
2018-04-25T14:01:22.590Z,2.40
2018-04-25T14:03:51.406Z,2.63
2018-04-25T14:06:19.439Z,2.27
2018-04-25T14:08:47.487Z,2.37
2018-04-25T14:11:15.531Z,2.20
2018-04-25T14:13:44.343Z,2.40
2018-04-25T14:16:13.151Z,2.17
2018-04-25T14:18:41.203Z,2.70
2018-04-25T14:21:09.248Z,2.20
2018-04-25T14:23:37.322Z,2.10
2018-04-25T14:26:05.367Z,2.10
2018-04-25T14:28:34.183Z,2.03
2018-04-25T14:31:02.992Z,2.17
2018-04-25T14:33:31.054Z,2.07
2018-04-25T14:35:59.095Z,2.10
2018-04-25T14:38:27.162Z,1.77
2018-04-25T14:40:55.212Z,2.00
2018-04-25T14:43:24.022Z,1.57
2018-04-25T14:45:52.843Z,1.50
2018-04-25T14:48:20.959Z,1.90
2018-04-25T14:50:49.708Z,1.80
2018-04-25T14:53:18.562Z,1.90
2018-04-25T14:55:46.615Z,1.80
2018-04-25T14:58:14.664Z,2.70
2018-04-25T15:00:42.707Z,1.67
2018-04-25T15:03:10.777Z,1.50
2018-04-25T15:05:38.825Z,1.73
2018-04-25T15:08:06.868Z,1.60
2018-04-25T15:10:34.915Z,1.57
2018-04-25T15:13:02.963Z,1.67
2018-04-25T15:15:31.016Z,1.60
2018-04-25T15:17:59.059Z,1.60
2018-04-25T15:20:27.870Z,1.50
2018-04-25T15:22:55.914Z,1.60
2018-04-25T15:25:23.979Z,1.60
2018-04-25T15:27:52.017Z,1.70
2018-04-25T15:30:20.826Z,1.57
2018-04-25T15:32:48.876Z,1.30
2018-04-25T15:35:16.918Z,1.77
2018-04-25T15:37:45.110Z,1.50
2018-04-25T15:40:13.172Z,1.63
2018-04-25T15:42:41.275Z,1.40
2018-04-25T15:45:09.322Z,1.63
2018-04-25T15:47:38.188Z,1.50
2018-04-25T15:50:06.237Z,1.60
2018-04-25T15:52:34.283Z,1.67
2018-04-25T15:55:02.336Z,1.80
2018-04-25T15:57:30.384Z,2.00
2018-04-25T15:59:58.434Z,2.10
2018-04-25T16:02:27.238Z,1.80
2018-04-25T16:04:55.359Z,1.90
2018-04-25T16:07:23.401Z,1.70
2018-04-25T16:09:52.956Z,1.60
2018-04-25T16:12:21.111Z,1.50
2018-04-25T16:14:49.067Z,1.50
2018-04-25T16:17:17.100Z,1.57
2018-04-25T16:19:45.939Z,1.50
2018-04-25T16:22:14.012Z,1.40
2018-04-25T16:24:42.047Z,1.40
2018-04-25T16:27:10.883Z,1.57
2018-04-25T16:29:38.930Z,1.70
2018-04-25T16:32:06.983Z,1.80
2018-04-25T16:34:35.025Z,1.90
2018-04-25T16:37:03.853Z,2.20
2018-04-25T16:39:31.879Z,2.07
2018-04-25T16:41:59.932Z,2.20
2018-04-25T16:44:27.989Z,2.40
2018-04-25T16:46:56.818Z,1.90
2018-04-25T16:49:24.859Z,1.93
2018-04-25T16:51:53.677Z,1.83
2018-04-25T16:54:21.723Z,1.60
2018-04-25T16:56:49.779Z,1.50
2018-04-25T16:59:17.827Z,1.50
2018-04-25T17:01:46.720Z,1.70
2018-04-25T17:04:15.548Z,1.80
2018-04-25T17:06:43.602Z,1.67
2018-04-25T17:09:11.643Z,1.60
2018-04-25T17:11:39.927Z,1.70
2018-04-25T17:14:07.948Z,1.63
2018-04-25T17:16:36.004Z,1.70
2018-04-25T17:19:04.056Z,1.70
2018-04-25T17:21:32.876Z,1.50
2018-04-25T17:24:00.919Z,1.80
2018-04-25T17:26:28.969Z,1.80
2018-04-25T17:28:57.008Z,2.17
2018-04-25T17:31:25.825Z,2.10
2018-04-25T17:33:53.870Z,2.00
2018-04-25T17:36:21.930Z,2.20
2018-04-25T17:38:49.979Z,1.80
2018-04-25T17:41:18.027Z,2.00
2018-04-25T17:43:46.973Z,2.10
2018-04-25T17:46:14.999Z,1.77
2018-04-25T17:48:43.041Z,1.97
2018-04-25T17:51:11.161Z,2.20
2018-04-25T17:53:39.198Z,2.17
2018-04-25T17:56:08.021Z,2.20
2018-04-25T17:58:36.060Z,2.30
2018-04-25T18:01:04.150Z,2.03
2018-04-25T18:03:32.278Z,1.80
2018-04-25T18:06:01.127Z,1.90
2018-04-25T18:08:29.175Z,2.10
2018-04-25T18:10:57.279Z,3.00
2018-04-25T18:13:25.335Z,2.90
2018-04-25T18:15:53.491Z,2.70
2018-04-25T18:18:22.322Z,2.40
2018-04-25T18:20:50.422Z,2.30
2018-04-25T18:23:18.562Z,2.63
2018-04-25T18:25:46.599Z,3.13
2018-04-25T18:28:14.663Z,2.67
2018-04-25T18:30:42.726Z,3.00
2018-04-25T18:33:11.583Z,3.60
2018-04-25T18:35:39.690Z,2.87
2018-04-25T18:38:07.736Z,2.80
2018-04-25T18:40:35.780Z,2.40
2018-04-25T18:43:04.591Z,2.30
2018-04-25T18:45:33.399Z,2.50
2018-04-25T18:48:01.463Z,2.13
2018-04-25T18:50:30.272Z,2.30
2018-04-25T18:52:59.086Z,2.20
2018-04-25T18:55:27.131Z,2.20
2018-04-25T18:57:55.188Z,2.10
2018-04-25T19:00:23.223Z,2.30
2018-04-25T19:02:52.041Z,2.10
2018-04-25T19:05:20.080Z,2.37
2018-04-25T19:07:48.149Z,2.27
2018-04-25T19:10:16.211Z,2.30
2018-04-25T19:12:44.268Z,2.50
2018-04-25T19:15:13.161Z,2.40
2018-04-25T19:17:41.151Z,2.60
2018-04-25T19:20:09.175Z,2.50
2018-04-25T19:22:37.226Z,2.83
2018-04-25T19:25:06.047Z,2.53
2018-04-25T19:27:34.103Z,2.90
2018-04-25T19:30:02.910Z,3.00
2018-04-25T19:32:31.727Z,2.83
2018-04-25T19:34:59.771Z,2.40
2018-04-25T19:37:27.825Z,2.33
2018-04-25T19:39:55.862Z,2.70
2018-04-25T19:42:24.680Z,2.20
2018-04-25T19:44:52.763Z,2.37
2018-04-25T19:47:20.779Z,2.33
2018-04-25T19:49:48.845Z,2.27
2018-04-25T19:52:16.892Z,2.27
2018-04-25T19:54:44.943Z,2.20
2018-04-25T19:57:12.988Z,2.40
2018-04-25T19:59:41.028Z,2.20
2018-04-25T20:02:09.076Z,2.33
2018-04-25T20:04:37.148Z,2.90
2018-04-25T20:07:05.207Z,3.20
2018-04-25T20:09:34.024Z,3.47
2018-04-25T20:12:02.068Z,3.60
2018-04-25T20:14:30.125Z,3.67
2018-04-25T20:16:58.163Z,3.57
2018-04-25T20:19:26.985Z,3.33
2018-04-25T20:21:55.031Z,3.03
2018-04-25T20:24:23.075Z,3.20
2018-04-25T20:26:51.119Z,3.10
2018-04-25T20:29:19.934Z,3.40
2018-04-25T20:31:47.978Z,3.43
2018-04-25T20:34:16.034Z,3.43
2018-04-25T20:36:44.075Z,3.87
2018-04-25T20:39:12.888Z,4.47
2018-04-25T20:41:41.843Z,4.33
2018-04-25T20:44:09.984Z,5.00
2018-04-25T20:46:38.031Z,4.90
2018-04-25T20:49:06.079Z,4.77
2018-04-25T20:51:34.129Z,5.23
2018-04-25T20:54:03.048Z,5.27
2018-04-25T20:56:31.091Z,4.73
2018-04-25T20:58:59.219Z,4.70
2018-04-25T21:01:27.299Z,4.43
2018-04-25T21:03:55.353Z,5.03
2018-04-25T21:06:23.397Z,4.70
2018-04-25T21:08:51.443Z,4.50
2018-04-25T21:11:19.488Z,4.50
2018-04-25T21:13:48.299Z,4.63
2018-04-25T21:16:16.344Z,4.57
2018-04-25T21:18:44.419Z,3.87
2018-04-25T21:21:12.444Z,3.80
2018-04-25T21:23:41.292Z,4.10
2018-04-25T21:26:09.339Z,4.33
2018-04-25T21:28:37.388Z,3.60
2018-04-25T21:31:05.432Z,3.83
2018-04-25T21:33:34.252Z,3.27
2018-04-25T21:36:02.296Z,3.30
2018-04-25T21:38:30.421Z,3.67
2018-04-25T21:40:58.461Z,3.33
2018-04-25T21:43:26.515Z,3.30
2018-04-25T21:45:54.554Z,3.13
2018-04-25T21:48:23.370Z,3.33
2018-04-25T21:50:51.412Z,3.20
2018-04-25T21:53:20.225Z,3.03
2018-04-25T21:55:49.038Z,3.20
2018-04-25T21:58:17.848Z,3.20
2018-04-25T22:00:46.674Z,3.30
2018-04-25T22:03:14.720Z,3.47
2018-04-25T22:05:42.754Z,2.97
2018-04-25T22:08:10.807Z,3.33
2018-04-25T22:10:38.848Z,3.10
2018-04-25T22:13:06.905Z,3.20
2018-04-25T22:15:34.943Z,3.53
2018-04-25T22:18:03.793Z,3.60
2018-04-25T22:20:31.860Z,3.60
2018-04-25T22:22:59.898Z,3.60
2018-04-25T22:25:27.955Z,3.37
2018-04-25T22:27:56.000Z,3.27
2018-04-25T22:30:24.812Z,2.73
2018-04-25T22:32:52.858Z,3.00
2018-04-25T22:35:20.908Z,3.40
2018-04-25T22:37:48.956Z,3.27
2018-04-25T22:40:17.003Z,3.30
2018-04-25T22:42:45.055Z,3.40
2018-04-25T22:45:13.103Z,3.53
2018-04-25T22:47:42.105Z,3.90
2018-04-25T22:50:10.921Z,4.20
2018-04-25T22:52:39.029Z,4.27
2018-04-25T22:55:07.096Z,3.97
2018-04-25T22:57:35.183Z,4.50
2018-04-25T23:00:03.236Z,4.40
2018-04-25T23:02:31.279Z,4.53
2018-04-25T23:04:59.438Z,4.53
2018-04-25T23:07:27.480Z,4.93
2018-04-25T23:09:55.531Z,4.60
2018-04-25T23:12:23.596Z,4.43
2018-04-25T23:14:52.400Z,4.50
2018-04-25T23:17:20.443Z,5.10
2018-04-25T23:19:48.494Z,5.30
2018-04-25T23:22:16.535Z,4.80
2018-04-25T23:24:45.355Z,5.50
2018-04-25T23:27:13.395Z,5.50
2018-04-25T23:29:41.457Z,5.43
2018-04-25T23:32:09.491Z,5.20
2018-04-25T23:34:37.548Z,5.60
2018-04-25T23:37:05.603Z,5.20
2018-04-25T23:39:33.655Z,5.20
2018-04-25T23:42:01.702Z,5.53
2018-04-25T23:44:29.747Z,6.80
2018-04-25T23:46:57.787Z,5.67
2018-04-25T23:49:26.608Z,6.00
2018-04-25T23:51:54.646Z,6.27
2018-04-25T23:54:22.699Z,6.70
2018-04-25T23:56:50.745Z,6.90
2018-04-25T23:59:19.585Z,6.60
